createdAt,value
2023-02-01T00:00:53.219Z,2.65
2023-02-01T00:03:20.057Z,3.20
2023-02-01T00:05:46.492Z,4.30
2023-02-01T00:08:12.835Z,3.17
2023-02-01T00:10:39.164Z,3.00
2023-02-01T00:13:05.477Z,3.45
2023-02-01T00:15:31.902Z,3.72
2023-02-01T00:17:58.319Z,3.28
2023-02-01T00:20:24.640Z,3.15
2023-02-01T00:22:51.033Z,3.33
2023-02-01T00:25:17.430Z,3.67
2023-02-01T00:27:43.742Z,3.08
2023-02-01T00:30:10.163Z,3.40
2023-02-01T00:32:36.480Z,3.05
2023-02-01T00:35:02.878Z,3.20
2023-02-01T00:37:29.228Z,4.15
2023-02-01T00:39:56.851Z,2.92
2023-02-01T00:42:23.196Z,3.00
2023-02-01T00:44:49.503Z,3.87
2023-02-01T00:47:15.839Z,3.53
2023-02-01T00:49:42.139Z,3.10
2023-02-01T00:52:08.450Z,3.22
2023-02-01T00:54:34.957Z,3.28
2023-02-01T00:57:01.269Z,3.25
2023-02-01T00:59:27.642Z,3.15
2023-02-01T01:01:54.099Z,3.60
2023-02-01T01:04:20.416Z,3.10
2023-02-01T01:06:46.787Z,3.47
2023-02-01T01:09:13.099Z,3.10
2023-02-01T01:11:39.477Z,3.10
2023-02-01T01:14:05.833Z,3.53
2023-02-01T01:16:32.213Z,3.03
2023-02-01T01:18:58.565Z,2.65
2023-02-01T01:21:24.909Z,2.60
2023-02-01T01:23:51.231Z,3.05
2023-02-01T01:26:17.635Z,3.67
2023-02-01T01:28:43.957Z,3.17
2023-02-01T01:31:10.700Z,3.58
2023-02-01T01:33:37.065Z,2.90
2023-02-01T01:36:03.387Z,2.85
2023-02-01T01:38:29.680Z,3.67
2023-02-01T01:40:56.015Z,2.42
2023-02-01T01:43:23.694Z,2.92
2023-02-01T01:45:50.661Z,3.00
2023-02-01T01:48:17.016Z,2.70
2023-02-01T01:50:43.348Z,2.62
2023-02-01T01:53:09.653Z,2.30
2023-02-01T01:55:35.981Z,2.78
2023-02-01T01:58:02.330Z,2.65
2023-02-01T02:00:28.764Z,3.08
2023-02-01T02:02:55.183Z,2.72
2023-02-01T02:05:21.576Z,2.25
2023-02-01T02:07:47.930Z,2.78
2023-02-01T02:10:14.244Z,3.30
2023-02-01T02:12:40.565Z,3.03
2023-02-01T02:15:07.657Z,2.28
2023-02-01T02:17:33.978Z,3.10
2023-02-01T02:20:00.287Z,2.67
2023-02-01T02:22:26.877Z,2.80
2023-02-01T02:24:53.194Z,2.60
2023-02-01T02:27:25.864Z,2.60
2023-02-01T02:29:52.218Z,2.92
2023-02-01T02:32:18.526Z,2.40
2023-02-01T02:34:44.852Z,2.58
2023-02-01T02:37:11.161Z,3.00
2023-02-01T02:39:37.477Z,2.55
2023-02-01T02:42:22.487Z,3.28
2023-02-01T02:45:07.361Z,2.72
2023-02-01T02:47:33.697Z,2.65
2023-02-01T02:50:19.125Z,3.33
2023-02-01T02:53:04.369Z,2.70
2023-02-01T02:55:30.721Z,2.65
2023-02-01T02:58:15.849Z,2.67
2023-02-01T03:01:00.796Z,2.40
2023-02-01T03:03:45.710Z,2.83
2023-02-01T03:06:12.017Z,2.50
2023-02-01T03:08:38.329Z,2.65
2023-02-01T03:11:05.219Z,3.08
2023-02-01T03:13:31.526Z,2.47
2023-02-01T03:15:57.935Z,2.70
2023-02-01T03:18:24.264Z,2.55
2023-02-01T03:20:50.593Z,2.97
2023-02-01T03:23:16.943Z,2.42
2023-02-01T03:25:43.256Z,3.05
2023-02-01T03:28:10.080Z,3.00
2023-02-01T03:30:36.412Z,2.60
2023-02-01T03:33:03.085Z,2.78
2023-02-01T03:35:29.886Z,2.42
2023-02-01T03:37:56.218Z,2.90
2023-02-01T03:40:22.822Z,3.45
2023-02-01T03:42:49.345Z,3.08
2023-02-01T03:45:15.677Z,2.50
2023-02-01T03:47:42.007Z,2.15
2023-02-01T03:50:08.360Z,2.62
2023-02-01T03:52:35.739Z,3.20
2023-02-01T03:55:02.051Z,2.80
2023-02-01T03:57:28.406Z,2.75
2023-02-01T03:59:54.743Z,2.67
2023-02-01T04:02:21.104Z,2.70
2023-02-01T04:04:47.447Z,2.65
2023-02-01T04:07:13.767Z,3.12
2023-02-01T04:09:40.105Z,2.55
2023-02-01T04:12:06.451Z,2.70
2023-02-01T04:14:32.776Z,2.50
2023-02-01T04:16:59.078Z,2.50
2023-02-01T04:19:25.399Z,2.10
2023-02-01T04:21:51.722Z,2.35
2023-02-01T04:24:18.063Z,2.67
2023-02-01T04:26:44.467Z,2.75
2023-02-01T04:29:11.298Z,2.78
2023-02-01T04:31:37.822Z,2.70
2023-02-01T04:34:04.257Z,2.72
2023-02-01T04:36:30.555Z,2.65
2023-02-01T04:38:56.883Z,2.42
2023-02-01T04:41:23.929Z,2.70
2023-02-01T04:43:50.262Z,2.60
2023-02-01T04:46:16.633Z,2.37
2023-02-01T04:48:43.021Z,3.00
2023-02-01T04:51:09.356Z,3.42
2023-02-01T04:53:35.722Z,3.08
2023-02-01T04:56:02.230Z,3.25
2023-02-01T04:58:28.586Z,3.95
2023-02-01T05:00:54.986Z,3.05
2023-02-01T05:03:21.376Z,2.58
2023-02-01T05:05:47.704Z,2.92
2023-02-01T05:08:14.005Z,2.67
2023-02-01T05:10:40.325Z,3.03
2023-02-01T05:13:25.392Z,2.92
2023-02-01T05:15:51.770Z,3.15
2023-02-01T05:18:18.093Z,2.42
2023-02-01T05:20:44.451Z,2.83
2023-02-01T05:23:10.785Z,2.72
2023-02-01T05:25:37.112Z,2.85
2023-02-01T05:28:03.766Z,3.10
2023-02-01T05:30:30.562Z,2.40
2023-02-01T05:32:56.875Z,2.92
2023-02-01T05:35:23.204Z,2.72
2023-02-01T05:37:49.520Z,3.15
2023-02-01T05:40:15.885Z,2.40
2023-02-01T05:42:42.249Z,2.75
2023-02-01T05:45:08.702Z,2.40
2023-02-01T05:47:35.091Z,2.70
2023-02-01T05:50:01.713Z,2.83
2023-02-01T05:52:28.090Z,3.10
2023-02-01T05:54:54.432Z,2.55
2023-02-01T05:57:20.775Z,3.05
2023-02-01T05:59:47.108Z,2.75
2023-02-01T06:02:13.424Z,3.78
2023-02-01T06:04:40.228Z,2.58
2023-02-01T06:07:08.093Z,2.78
2023-02-01T06:09:34.421Z,3.20
2023-02-01T06:12:02.109Z,3.20
2023-02-01T06:14:28.707Z,3.40
2023-02-01T06:16:55.137Z,3.53
2023-02-01T06:19:21.449Z,3.40
2023-02-01T06:21:47.995Z,2.83
2023-02-01T06:24:14.362Z,3.28
2023-02-01T06:26:41.207Z,2.80
2023-02-01T06:29:07.727Z,2.87
2023-02-01T06:31:34.162Z,2.70
2023-02-01T06:34:00.589Z,2.58
2023-02-01T06:36:26.916Z,3.12
2023-02-01T06:38:53.346Z,2.92
2023-02-01T06:41:21.611Z,3.33
2023-02-01T06:43:48.138Z,2.90
2023-02-01T06:46:14.559Z,2.80
2023-02-01T06:48:40.869Z,2.78
2023-02-01T06:51:07.249Z,3.28
2023-02-01T06:53:33.597Z,3.35
2023-02-01T06:55:59.912Z,2.75
2023-02-01T06:58:26.221Z,3.10
2023-02-01T07:00:54.940Z,3.33
2023-02-01T07:03:21.321Z,3.05
2023-02-01T07:05:47.649Z,3.08
2023-02-01T07:08:13.976Z,3.10
2023-02-01T07:10:40.412Z,2.58
2023-02-01T07:13:06.741Z,2.72
2023-02-01T07:15:33.061Z,3.67
2023-02-01T07:17:59.388Z,3.12
2023-02-01T07:20:25.877Z,2.72
2023-02-01T07:22:52.255Z,3.50
2023-02-01T07:25:18.577Z,3.70
2023-02-01T07:27:45.186Z,3.37
2023-02-01T07:30:11.505Z,2.97
2023-02-01T07:32:37.887Z,2.78
2023-02-01T07:35:04.215Z,3.22
2023-02-01T07:37:31.807Z,3.03
2023-02-01T07:39:58.195Z,3.60
2023-02-01T07:42:24.507Z,2.83
2023-02-01T07:44:50.866Z,3.78
2023-02-01T07:47:17.214Z,3.35
2023-02-01T07:49:43.574Z,3.30
2023-02-01T07:52:12.279Z,2.70
2023-02-01T07:54:38.600Z,2.95
2023-02-01T07:57:04.936Z,3.35
2023-02-01T07:59:31.241Z,3.15
2023-02-01T08:01:57.571Z,2.85
2023-02-01T08:04:23.941Z,3.03
2023-02-01T08:06:50.272Z,3.10
2023-02-01T08:09:16.714Z,3.67
2023-02-01T08:11:43.106Z,3.60
2023-02-01T08:14:09.419Z,3.10
2023-02-01T08:16:37.636Z,3.45
2023-02-01T08:19:03.987Z,2.85
2023-02-01T08:21:37.707Z,2.92
2023-02-01T08:24:04.218Z,3.67
2023-02-01T08:26:30.568Z,3.60
2023-02-01T08:28:56.911Z,2.83
2023-02-01T08:31:24.604Z,3.05
2023-02-01T08:33:50.973Z,3.05
2023-02-01T08:36:17.282Z,2.70
2023-02-01T08:38:43.671Z,3.30
2023-02-01T08:41:09.967Z,3.42
2023-02-01T08:43:36.335Z,3.55
2023-02-01T08:46:02.728Z,3.33
2023-02-01T08:48:29.110Z,3.33
2023-02-01T08:50:55.545Z,3.37
2023-02-01T08:53:21.849Z,2.72
2023-02-01T08:55:48.184Z,3.03
2023-02-01T08:58:15.117Z,3.08
2023-02-01T09:00:41.481Z,3.03
2023-02-01T09:03:07.790Z,3.50
2023-02-01T09:05:48.407Z,3.47
2023-02-01T09:08:16.089Z,3.53
2023-02-01T09:10:42.524Z,3.28
2023-02-01T09:13:08.988Z,3.17
2023-02-01T09:15:35.344Z,2.95
2023-02-01T09:18:01.918Z,2.30
2023-02-01T09:20:28.234Z,3.95
2023-02-01T09:22:54.607Z,3.92
2023-02-01T09:25:21.041Z,2.87
2023-02-01T09:27:47.465Z,3.03
2023-02-01T09:30:13.776Z,2.53
2023-02-01T09:32:40.105Z,2.90
2023-02-01T09:35:06.419Z,2.97
2023-02-01T09:37:34.001Z,2.60
2023-02-01T09:40:00.351Z,2.70
2023-02-01T09:42:26.645Z,2.60
2023-02-01T09:44:53.023Z,2.75
2023-02-01T09:47:19.352Z,2.92
2023-02-01T09:49:47.362Z,3.05
2023-02-01T09:52:13.726Z,3.33
2023-02-01T09:54:40.042Z,3.37
2023-02-01T09:57:06.376Z,3.58
2023-02-01T09:59:32.698Z,3.78
2023-02-01T10:02:00.479Z,3.17
2023-02-01T10:04:26.854Z,3.37
2023-02-01T10:06:53.157Z,3.35
2023-02-01T10:09:19.514Z,3.83
2023-02-01T10:11:51.999Z,2.30
2023-02-01T10:14:18.316Z,3.08
2023-02-01T10:16:44.922Z,3.70
2023-02-01T10:19:11.366Z,2.75
2023-02-01T10:21:40.738Z,3.05
2023-02-01T10:24:17.338Z,2.90
2023-02-01T10:26:47.000Z,2.30
2023-02-01T10:29:13.381Z,2.75
2023-02-01T10:31:39.945Z,3.10
2023-02-01T10:34:06.318Z,3.45
2023-02-01T10:36:32.737Z,2.28
2023-02-01T10:38:59.133Z,2.60
2023-02-01T10:41:25.558Z,2.67
2023-02-01T10:43:51.924Z,3.30
2023-02-01T10:46:18.644Z,2.78
2023-02-01T10:48:44.977Z,2.35
2023-02-01T10:51:11.341Z,2.80
2023-02-01T10:53:38.312Z,2.85
2023-02-01T10:56:04.605Z,3.05
2023-02-01T10:58:32.665Z,2.78
2023-02-01T11:00:59.072Z,3.42
2023-02-01T11:03:25.410Z,2.65
2023-02-01T11:05:51.757Z,3.03
2023-02-01T11:08:18.223Z,2.65
2023-02-01T11:10:44.552Z,2.75
2023-02-01T11:13:10.857Z,2.83
2023-02-01T11:15:37.177Z,3.40
2023-02-01T11:18:03.654Z,3.03
2023-02-01T11:20:30.062Z,2.90
2023-02-01T11:22:56.498Z,2.80
2023-02-01T11:25:23.538Z,3.20
2023-02-01T11:27:55.423Z,2.70
2023-02-01T11:30:22.094Z,3.00
2023-02-01T11:32:48.509Z,2.62
2023-02-01T11:35:14.895Z,3.00
2023-02-01T11:37:41.241Z,3.75
2023-02-01T11:40:07.602Z,2.65
2023-02-01T11:42:33.925Z,3.25
2023-02-01T11:45:00.241Z,2.90
2023-02-01T11:47:26.764Z,2.72
2023-02-01T11:49:53.277Z,2.45
2023-02-01T11:52:19.796Z,3.17
2023-02-01T11:54:46.103Z,3.12
2023-02-01T11:57:12.477Z,3.55
2023-02-01T11:59:40.971Z,2.55
2023-02-01T12:02:09.506Z,2.83
2023-02-01T12:04:35.860Z,3.10
2023-02-01T12:07:02.348Z,2.85
2023-02-01T12:09:28.803Z,2.58
2023-02-01T12:11:55.377Z,3.05
2023-02-01T12:14:21.683Z,2.70
2023-02-01T12:16:48.094Z,3.10
2023-02-01T12:19:14.492Z,3.25
2023-02-01T12:21:40.803Z,3.03
2023-02-01T12:24:07.125Z,3.10
2023-02-01T12:26:33.570Z,2.72
2023-02-01T12:28:59.905Z,2.78
2023-02-01T12:31:26.269Z,2.90
2023-02-01T12:33:52.612Z,2.67
2023-02-01T12:36:18.954Z,2.62
2023-02-01T12:38:46.601Z,2.28
2023-02-01T12:41:12.923Z,2.35
2023-02-01T12:43:39.241Z,2.83
2023-02-01T12:46:05.589Z,2.70
2023-02-01T12:48:32.038Z,2.40
2023-02-01T12:51:00.579Z,2.30
2023-02-01T12:53:26.931Z,2.12
2023-02-01T12:55:53.339Z,2.85
2023-02-01T12:58:19.667Z,3.17
2023-02-01T13:00:46.123Z,2.70
2023-02-01T13:03:12.731Z,2.62
2023-02-01T13:05:39.075Z,3.67
2023-02-01T13:08:05.422Z,2.40
2023-02-01T13:10:31.762Z,2.83
2023-02-01T13:12:58.095Z,3.15
2023-02-01T13:15:24.440Z,2.87
2023-02-01T13:17:50.805Z,2.90
2023-02-01T13:20:17.117Z,3.15
2023-02-01T13:22:44.759Z,2.50
2023-02-01T13:25:11.141Z,2.62
2023-02-01T13:27:37.447Z,3.00
2023-02-01T13:30:04.085Z,3.00
2023-02-01T13:33:50.594Z,2.87
2023-02-01T13:35:17.345Z,2.45
2023-02-01T13:37:43.870Z,2.50
2023-02-01T13:40:10.243Z,2.65
2023-02-01T13:42:36.569Z,2.70
2023-02-01T13:45:02.919Z,3.00
2023-02-01T13:47:29.261Z,2.10
2023-02-01T13:49:55.721Z,2.87
2023-02-01T13:52:22.015Z,2.65
2023-02-01T13:54:48.352Z,2.62
2023-02-01T13:57:14.655Z,2.45
2023-02-01T13:59:41.015Z,3.25
2023-02-01T14:02:12.158Z,2.60
2023-02-01T14:04:38.556Z,2.58
2023-02-01T14:07:05.326Z,2.37
2023-02-01T14:09:31.675Z,2.08
2023-02-01T14:11:58.889Z,2.42
2023-02-01T14:14:25.359Z,2.00
2023-02-01T14:16:51.706Z,2.25
2023-02-01T14:19:18.018Z,2.12
2023-02-01T14:21:44.403Z,2.25
2023-02-01T14:24:10.708Z,2.42
2023-02-01T14:26:37.038Z,2.00
2023-02-01T14:29:03.561Z,2.03
2023-02-01T14:31:30.010Z,2.65
2023-02-01T14:33:56.384Z,2.20
2023-02-01T14:36:22.705Z,2.35
2023-02-01T14:38:49.297Z,2.05
2023-02-01T14:41:15.647Z,2.08
2023-02-01T14:43:42.715Z,2.20
2023-02-01T14:46:09.100Z,2.50
2023-02-01T14:48:35.783Z,2.50
2023-02-01T14:51:02.119Z,2.53
2023-02-01T14:53:30.317Z,2.28
2023-02-01T14:55:59.724Z,2.72
2023-02-01T14:58:26.085Z,2.60
2023-02-01T15:00:52.451Z,2.58
2023-02-01T15:03:18.815Z,2.70
2023-02-01T15:05:45.399Z,2.80
2023-02-01T15:08:11.710Z,2.58
2023-02-01T15:10:38.029Z,2.78
2023-02-01T15:13:04.458Z,2.95
2023-02-01T15:15:34.542Z,2.47
2023-02-01T15:18:01.219Z,2.83
2023-02-01T15:20:27.536Z,2.80
2023-02-01T15:22:54.609Z,2.70
2023-02-01T15:25:21.715Z,3.40
2023-02-01T15:27:48.310Z,2.80
2023-02-01T15:30:14.624Z,2.80
2023-02-01T15:32:40.925Z,2.67
2023-02-01T15:35:07.246Z,3.30
2023-02-01T15:37:35.314Z,3.17
2023-02-01T15:40:01.707Z,3.65
2023-02-01T15:42:28.584Z,2.92
2023-02-01T15:44:55.125Z,2.70
2023-02-01T15:47:21.459Z,4.03
2023-02-01T15:49:47.821Z,2.40
2023-02-01T15:52:14.134Z,2.55
2023-02-01T15:54:40.511Z,3.10
2023-02-01T15:57:06.947Z,2.67
2023-02-01T15:59:34.282Z,2.70
2023-02-01T16:02:00.713Z,2.90
2023-02-01T16:04:27.216Z,2.72
2023-02-01T16:06:53.670Z,3.08
2023-02-01T16:09:19.992Z,2.62
2023-02-01T16:11:46.329Z,2.58
2023-02-01T16:14:12.635Z,2.45
2023-02-01T16:16:38.970Z,2.78
2023-02-01T16:19:05.342Z,3.53
2023-02-01T16:21:31.850Z,2.92
2023-02-01T16:23:58.263Z,3.00
2023-02-01T16:26:24.615Z,4.18
2023-02-01T16:28:51.097Z,4.80
2023-02-01T16:31:20.348Z,3.97
2023-02-01T16:33:48.290Z,3.37
2023-02-01T16:36:15.251Z,3.97
2023-02-01T16:38:41.577Z,3.37
2023-02-01T16:41:13.345Z,3.55
2023-02-01T16:43:39.704Z,5.20
2023-02-01T16:46:06.234Z,3.97
2023-02-01T16:48:32.713Z,3.30
2023-02-01T16:50:59.098Z,3.78
2023-02-01T16:53:25.577Z,3.47
2023-02-01T16:55:53.398Z,3.78
2023-02-01T16:58:19.948Z,4.10
2023-02-01T17:00:46.478Z,3.95
2023-02-01T17:03:17.617Z,4.18
2023-02-01T17:05:44.082Z,3.83
2023-02-01T17:08:10.600Z,4.60
2023-02-01T17:10:36.963Z,4.62
2023-02-01T17:13:03.414Z,3.00
2023-02-01T17:15:29.905Z,1.65
2023-02-01T17:17:57.722Z,2.05
2023-02-01T17:20:24.155Z,2.42
2023-02-01T17:22:50.549Z,1.10
2023-02-01T17:25:17.035Z,1.27
2023-02-01T17:27:44.207Z,3.00
2023-02-01T17:30:10.689Z,2.70
2023-02-01T17:32:37.044Z,2.95
2023-02-01T17:35:03.957Z,3.20
2023-02-01T17:37:30.337Z,8.75
2023-02-01T17:39:56.738Z,5.28
2023-02-01T17:42:23.088Z,3.15
2023-02-01T17:44:49.568Z,5.53
2023-02-01T17:47:15.879Z,1.30
2023-02-01T17:49:42.212Z,2.03
2023-02-01T17:52:08.523Z,1.67
2023-02-01T17:54:35.110Z,3.42
2023-02-01T17:57:03.612Z,2.75
2023-02-01T17:59:29.968Z,1.90
2023-02-01T18:02:01.002Z,3.20
2023-02-01T18:04:27.439Z,2.95
2023-02-01T18:06:53.807Z,3.37
2023-02-01T18:09:20.156Z,4.05
2023-02-01T18:11:46.833Z,3.33
2023-02-01T18:14:16.191Z,1.77
2023-02-01T18:16:42.608Z,1.33
2023-02-01T18:19:08.996Z,3.45
2023-02-01T18:21:35.329Z,1.60
2023-02-01T18:24:01.707Z,2.60
2023-02-01T18:26:28.049Z,2.35
2023-02-01T18:28:54.447Z,2.20
2023-02-01T18:31:22.384Z,1.73
2023-02-01T18:33:50.908Z,3.20
2023-02-01T18:36:19.392Z,1.52
2023-02-01T18:38:45.738Z,2.42
2023-02-01T18:41:12.057Z,2.10
2023-02-01T18:43:38.386Z,1.60
2023-02-01T18:46:04.736Z,1.80
2023-02-01T18:48:31.298Z,3.00
2023-02-01T18:50:57.959Z,1.75
2023-02-01T18:53:27.262Z,1.52
2023-02-01T18:55:54.866Z,1.35
2023-02-01T18:58:23.031Z,1.23
2023-02-01T19:00:53.213Z,1.23
2023-02-01T19:03:19.533Z,1.60
2023-02-01T19:05:45.899Z,1.50
2023-02-01T19:08:12.317Z,1.12
2023-02-01T19:10:42.216Z,1.40
2023-02-01T19:13:08.523Z,1.37
2023-02-01T19:15:40.222Z,1.20
2023-02-01T19:18:06.653Z,1.27
2023-02-01T19:20:32.991Z,1.23
2023-02-01T19:22:59.314Z,1.40
2023-02-01T19:25:26.118Z,1.30
2023-02-01T19:27:52.762Z,1.10
2023-02-01T19:30:19.076Z,1.48
2023-02-01T19:32:45.629Z,1.77
2023-02-01T19:35:13.701Z,1.30
2023-02-01T19:37:41.487Z,1.20
2023-02-01T19:40:07.783Z,1.60
2023-02-01T19:42:34.111Z,1.20
2023-02-01T19:45:00.579Z,1.33
2023-02-01T19:47:26.913Z,1.75
2023-02-01T19:49:53.382Z,3.10
2023-02-01T19:52:19.847Z,1.20
2023-02-01T19:54:46.171Z,1.55
2023-02-01T19:57:12.572Z,1.67
2023-02-01T19:59:38.916Z,1.52
2023-02-01T20:04:36.441Z,1.40
2023-02-01T20:07:03.520Z,2.15
2023-02-01T20:09:30.202Z,1.95
2023-02-01T20:11:56.738Z,3.53
2023-02-01T20:14:24.272Z,2.45
2023-02-01T20:16:50.604Z,1.87
2023-02-01T20:19:17.104Z,1.65
2023-02-01T20:21:43.666Z,1.48
2023-02-01T20:24:10.114Z,1.20
2023-02-01T20:26:37.311Z,1.77
2023-02-01T20:29:04.165Z,1.73
2023-02-01T20:31:30.614Z,1.55
2023-02-01T20:33:57.019Z,1.50
2023-02-01T20:36:23.494Z,1.40
2023-02-01T20:38:49.829Z,1.15
2023-02-01T20:41:16.305Z,1.27
2023-02-01T20:43:42.749Z,1.70
2023-02-01T20:46:09.901Z,1.50
2023-02-01T20:48:36.364Z,1.60
2023-02-01T20:51:02.872Z,1.75
2023-02-01T20:53:29.216Z,1.50
2023-02-01T20:55:55.615Z,1.73
2023-02-01T20:58:21.960Z,1.48
2023-02-01T21:00:48.536Z,1.50
2023-02-01T21:03:14.992Z,1.58
2023-02-01T21:05:41.325Z,1.42
2023-02-01T21:08:08.976Z,1.52
2023-02-01T21:13:07.260Z,1.30
2023-02-01T21:15:34.943Z,1.42
2023-02-01T21:18:01.618Z,1.52
2023-02-01T21:20:28.117Z,1.30
2023-02-01T21:22:54.433Z,1.33
2023-02-01T21:25:20.791Z,1.60
2023-02-01T21:27:47.182Z,1.55
2023-02-01T21:30:13.711Z,1.45
2023-02-01T21:32:40.032Z,1.17
2023-02-01T21:35:06.363Z,1.60
2023-02-01T21:37:32.684Z,1.30
2023-02-01T21:39:59.001Z,1.40
2023-02-01T21:42:26.658Z,1.52
2023-02-01T21:44:53.056Z,1.52
2023-02-01T21:47:19.351Z,1.50
2023-02-01T21:49:47.633Z,1.30
2023-02-01T21:52:14.335Z,1.55
2023-02-01T21:54:40.659Z,1.40
2023-02-01T21:57:12.633Z,1.30
2023-02-01T21:59:39.068Z,1.52
2023-02-01T22:02:06.235Z,1.52
2023-02-01T22:04:32.662Z,1.90
2023-02-01T22:07:02.199Z,2.00
2023-02-01T22:09:28.558Z,2.00
2023-02-01T22:11:54.883Z,1.60
2023-02-01T22:14:21.217Z,1.60
2023-02-01T22:16:47.626Z,1.40
2023-02-01T22:19:14.012Z,1.60
2023-02-01T22:21:42.169Z,1.85
2023-02-01T22:24:08.488Z,2.12
2023-02-01T22:26:34.859Z,2.12
2023-02-01T22:29:01.200Z,1.92
2023-02-01T22:31:27.661Z,1.98
2023-02-01T22:33:54.037Z,2.10
2023-02-01T22:36:20.411Z,2.10
2023-02-01T22:38:46.723Z,2.10
2023-02-01T22:41:13.054Z,2.40
2023-02-01T22:43:39.367Z,1.92
2023-02-01T22:46:05.702Z,1.90
2023-02-01T22:48:32.026Z,2.45
2023-02-01T22:50:58.410Z,2.20
2023-02-01T22:53:24.804Z,1.85
2023-02-01T22:55:52.097Z,1.62
2023-02-01T22:58:18.476Z,1.98
2023-02-01T23:00:44.825Z,1.90
2023-02-01T23:03:11.199Z,2.10
2023-02-01T23:05:37.613Z,2.65
2023-02-01T23:08:03.925Z,2.55
2023-02-01T23:10:30.285Z,2.00
2023-02-01T23:12:56.584Z,1.83
2023-02-01T23:15:23.272Z,2.10
2023-02-01T23:17:49.768Z,1.80
2023-02-01T23:20:16.073Z,2.42
2023-02-01T23:22:42.476Z,2.00
2023-02-01T23:25:08.803Z,2.05
2023-02-01T23:27:35.111Z,2.30
2023-02-01T23:30:01.519Z,1.90
2023-02-01T23:32:27.856Z,2.20
2023-02-01T23:34:54.305Z,1.90
2023-02-01T23:37:20.722Z,1.48
2023-02-01T23:39:47.042Z,1.58
2023-02-01T23:42:13.384Z,1.60
2023-02-01T23:44:39.699Z,1.52
2023-02-01T23:47:06.015Z,1.65
2023-02-01T23:49:32.328Z,1.83
2023-02-01T23:51:58.628Z,1.62
2023-02-01T23:54:24.966Z,1.92
2023-02-01T23:56:51.316Z,1.40
2023-02-01T23:59:17.643Z,1.62
